首页
METAR-TAF:

METAR-TAF

机场 :

波德戈里察國際機場

波德戈里察, 蒙特內哥羅

纬度: 42-26N, 经度: 019-17E, 海拔: 53米

当前天气观测

该预报发布于35分钟前的21:30 UTC
风速4节,风向北转西北
温度 18°C
湿度 64%
气压 1023 hPa
能见度10公里或以上
1500米以下无云,无积雨云

METAR: LYPG 132130Z 34004KT CAVOK 18/11 Q1023 NOSIG

时间: 00:05 (22:05 UTC)

预报

该预报发布于5小时和5分钟前的17:00 UTC
预报有效从13日的 18点(UTC)到 14日的 18点(UTC)
风速8节,风向北转西北
能见度10公里或以上
1500米以下无云,无积雨云

TAF: LYPG 131700Z 1318/1418 34008KT CAVOK TX30/1413Z TN16/1404Z

超过4000个机场的气象观测和天气预报(METAR&TAF报告)。

可查询的气象台以黄色和红色小点在地图上表示。

将鼠标移到小点上方,可查看气象台名称。

然后点击查看天气观测和预报。

如需切换地图:点击带黑十字的绿色按钮放大地图;点击带横线的绿色按钮缩小地图;或者点击绿色箭头查看邻近地区的地图。


METAR-TAF: